createdAt,value
2022-08-26T00:02:04.377Z,101452.56
2022-08-26T00:04:51.692Z,101445.41
2022-08-26T00:07:39.045Z,101432.38
2022-08-26T00:10:26.420Z,101426.41
2022-08-26T00:13:14.708Z,101444.63
2022-08-26T00:16:02.752Z,101416.84
2022-08-26T00:18:53.254Z,101440.28
2022-08-26T00:21:40.538Z,101436.91
2022-08-26T00:24:28.239Z,101419.69
2022-08-26T00:27:15.556Z,101430.72
2022-08-26T00:30:08.583Z,101435.97
2022-08-26T00:32:56.938Z,101429.13
2022-08-26T00:35:45.337Z,101428.22
2022-08-26T00:38:33.370Z,101423.81
2022-08-26T00:41:20.702Z,101409.06
2022-08-26T00:44:10.528Z,101429.31
2022-08-26T00:47:02.823Z,101427.44
2022-08-26T00:49:51.872Z,101430.88
2022-08-26T00:52:41.338Z,101426.41
2022-08-26T00:55:41.254Z,101422.97
2022-08-26T00:58:32.167Z,101424.78
2022-08-26T01:01:19.687Z,101431.88
2022-08-26T01:04:13.739Z,101430.25
2022-08-26T01:07:02.289Z,101424.06
2022-08-26T01:09:49.868Z,101425.25
2022-08-26T01:12:45.201Z,101429.47
2022-08-26T01:15:41.891Z,101412.03
2022-08-26T01:18:30.304Z,101421.03
2022-08-26T01:21:40.749Z,101416.66
2022-08-26T01:24:30.406Z,101417.00
2022-08-26T01:27:20.833Z,101426.59
2022-08-26T01:30:08.772Z,101413.88
2022-08-26T01:32:59.527Z,101405.28
2022-08-26T01:35:47.783Z,101421.84
2022-08-26T01:38:36.087Z,101422.88
2022-08-26T01:41:27.440Z,101416.06
2022-08-26T01:44:21.525Z,101408.31
2022-08-26T01:47:09.948Z,101409.44
2022-08-26T01:50:00.080Z,101407.88
2022-08-26T01:52:54.260Z,101407.94
2022-08-26T01:55:45.458Z,101414.91
2022-08-26T01:58:39.248Z,101424.28
2022-08-26T02:01:28.956Z,101430.38
2022-08-26T02:04:29.644Z,101417.19
2022-08-26T02:07:19.846Z,101424.22
2022-08-26T02:10:09.308Z,101415.56
2022-08-26T02:12:56.689Z,101412.97
2022-08-26T02:15:45.883Z,101409.50
2022-08-26T02:18:37.418Z,101409.59
2022-08-26T02:21:24.939Z,101403.66
2022-08-26T02:24:19.941Z,101410.53
2022-08-26T02:27:07.412Z,101406.25
2022-08-26T02:30:04.992Z,101400.06
2022-08-26T02:32:53.325Z,101399.97
2022-08-26T02:35:40.840Z,101395.06
2022-08-26T02:38:29.599Z,101406.47
2022-08-26T02:41:17.741Z,101401.47
2022-08-26T02:44:07.353Z,101410.41
2022-08-26T02:46:55.030Z,101404.31
2022-08-26T02:49:47.219Z,101399.88
2022-08-26T02:52:35.030Z,101393.09
2022-08-26T02:55:22.295Z,101381.13
2022-08-26T02:58:12.058Z,101385.72
2022-08-26T03:00:59.751Z,101401.53
2022-08-26T03:03:49.101Z,101392.06
2022-08-26T03:06:37.597Z,101388.72
2022-08-26T03:09:25.410Z,101392.22
2022-08-26T03:12:13.267Z,101378.69
2022-08-26T03:15:01.412Z,101376.97
2022-08-26T03:17:50.266Z,101385.78
2022-08-26T03:20:37.788Z,101378.13
2022-08-26T03:23:25.795Z,101384.56
2022-08-26T03:26:15.474Z,101386.50
2022-08-26T03:29:22.648Z,101387.56
2022-08-26T03:32:09.945Z,101384.13
2022-08-26T03:34:58.167Z,101383.50
2022-08-26T03:37:45.463Z,101383.50
2022-08-26T03:40:36.759Z,101388.97
2022-08-26T03:43:26.927Z,101382.88
2022-08-26T03:46:15.034Z,101380.28
2022-08-26T03:49:05.459Z,101375.22
2022-08-26T03:51:52.638Z,101369.22
2022-08-26T03:54:41.189Z,101379.78
2022-08-26T03:57:31.474Z,101373.81
2022-08-26T04:00:19.965Z,101373.09
2022-08-26T04:03:10.050Z,101364.63
2022-08-26T04:05:57.698Z,101373.19
2022-08-26T04:08:45.384Z,101373.25
2022-08-26T04:11:35.899Z,101378.56
2022-08-26T04:14:27.830Z,101380.28
2022-08-26T04:17:15.894Z,101375.25
2022-08-26T04:20:06.502Z,101384.97
2022-08-26T04:22:54.013Z,101391.97
2022-08-26T04:25:41.263Z,101388.75
2022-08-26T04:28:29.875Z,101384.97
2022-08-26T04:31:18.836Z,101394.56
2022-08-26T04:34:07.229Z,101398.09
2022-08-26T04:36:56.201Z,101391.13
2022-08-26T04:39:43.439Z,101402.38
2022-08-26T04:42:33.608Z,101397.94
2022-08-26T04:45:22.804Z,101386.66
2022-08-26T04:48:11.065Z,101380.41
2022-08-26T04:51:00.167Z,101397.94
2022-08-26T04:53:47.413Z,101385.03
2022-08-26T04:56:37.653Z,101404.03
2022-08-26T04:59:25.279Z,101401.47
2022-08-26T05:02:12.508Z,101407.47
2022-08-26T05:04:59.730Z,101405.75
2022-08-26T05:07:47.009Z,101403.75
2022-08-26T05:10:46.923Z,101399.34
2022-08-26T05:13:35.223Z,101409.56
2022-08-26T05:16:22.664Z,101405.91
2022-08-26T05:19:10.277Z,101403.97
2022-08-26T05:22:01.259Z,101384.56
2022-08-26T05:24:48.918Z,101398.28
2022-08-26T05:27:36.422Z,101399.94
2022-08-26T05:30:24.548Z,101389.31
2022-08-26T05:33:12.379Z,101410.22
2022-08-26T05:36:07.784Z,101401.13
2022-08-26T05:38:57.917Z,101402.47
2022-08-26T05:41:45.340Z,101403.25
2022-08-26T05:44:55.591Z,101407.38
2022-08-26T05:47:43.392Z,101404.31
2022-08-26T05:50:30.595Z,101401.53
2022-08-26T05:53:21.481Z,101409.88
2022-08-26T05:56:10.817Z,101401.91
2022-08-26T05:58:59.634Z,101397.31
2022-08-26T06:01:47.089Z,101407.34
2022-08-26T06:04:35.515Z,101391.69
2022-08-26T06:07:43.578Z,101404.25
2022-08-26T06:10:33.112Z,101397.94
2022-08-26T06:13:24.308Z,101415.91
2022-08-26T06:16:15.403Z,101413.00
2022-08-26T06:19:11.178Z,101414.56
2022-08-26T06:22:23.307Z,101402.91
2022-08-26T06:25:29.649Z,101413.19
2022-08-26T06:28:17.530Z,101415.41
2022-08-26T06:31:06.394Z,101399.56
2022-08-26T06:33:54.283Z,101409.66
2022-08-26T06:36:44.017Z,101414.50
2022-08-26T06:39:32.047Z,101406.53
2022-08-26T06:42:19.496Z,101399.47
2022-08-26T06:45:07.319Z,101420.72
2022-08-26T06:47:54.792Z,101430.91
2022-08-26T06:50:42.899Z,101423.19
2022-08-26T06:53:30.137Z,101415.84
2022-08-26T06:56:21.060Z,101423.31
2022-08-26T06:59:12.613Z,101410.66
2022-08-26T07:01:59.911Z,101415.72
2022-08-26T07:04:51.104Z,101404.97
2022-08-26T07:07:40.973Z,101426.38
2022-08-26T07:10:33.047Z,101413.84
2022-08-26T07:13:30.871Z,101418.63
2022-08-26T07:16:18.613Z,101422.84
2022-08-26T07:19:11.206Z,101427.72
2022-08-26T07:22:04.346Z,101428.13
2022-08-26T07:24:54.093Z,101421.75
2022-08-26T07:27:44.026Z,101430.25
2022-08-26T07:30:31.585Z,101420.16
2022-08-26T07:33:22.286Z,101422.56
2022-08-26T07:36:11.717Z,101416.09
2022-08-26T07:38:59.321Z,101422.94
2022-08-26T07:41:48.569Z,101402.69
2022-08-26T07:44:38.266Z,101425.69
2022-08-26T07:47:28.609Z,101415.97
2022-08-26T07:50:18.605Z,101416.63
2022-08-26T07:53:15.655Z,101409.22
2022-08-26T07:56:05.566Z,101413.25
2022-08-26T07:58:53.484Z,101414.66
2022-08-26T08:01:44.749Z,101402.94
2022-08-26T08:04:35.703Z,101408.66
2022-08-26T08:07:38.647Z,101406.56
2022-08-26T08:10:31.957Z,101409.50
2022-08-26T08:13:23.071Z,101409.16
2022-08-26T08:16:12.770Z,101412.22
2022-08-26T08:19:00.368Z,101411.91
2022-08-26T08:21:47.651Z,101408.75
2022-08-26T08:24:35.309Z,101389.50
2022-08-26T08:27:24.134Z,101406.69
2022-08-26T08:30:13.643Z,101401.59
2022-08-26T08:33:01.978Z,101399.88
2022-08-26T08:35:49.833Z,101397.56
2022-08-26T08:38:37.414Z,101388.28
2022-08-26T08:41:43.707Z,101401.47
2022-08-26T08:44:33.769Z,101390.47
2022-08-26T08:47:36.175Z,101373.88
2022-08-26T08:50:51.240Z,101388.28
2022-08-26T08:53:42.123Z,101379.94
2022-08-26T08:56:57.658Z,101385.28
2022-08-26T09:00:02.666Z,101378.75
2022-08-26T09:02:58.578Z,101379.38
2022-08-26T09:05:51.603Z,101376.50
2022-08-26T09:08:41.846Z,101389.69
2022-08-26T09:11:29.470Z,101381.31
2022-08-26T09:14:18.069Z,101388.69
2022-08-26T09:17:16.127Z,101393.97
2022-08-26T09:20:27.659Z,101378.78
2022-08-26T09:23:19.425Z,101375.94
2022-08-26T09:26:26.010Z,101376.63
2022-08-26T09:29:22.424Z,101378.66
2022-08-26T09:32:21.343Z,101381.50
2022-08-26T09:35:35.838Z,101372.75
2022-08-26T09:38:33.258Z,101372.63
2022-08-26T09:41:32.947Z,101385.09
2022-08-26T09:44:21.754Z,101374.97
2022-08-26T09:47:09.942Z,101372.59
2022-08-26T09:49:59.452Z,101369.81
2022-08-26T09:52:46.736Z,101368.59
2022-08-26T09:55:35.951Z,101375.78
2022-08-26T09:58:37.818Z,101368.97
2022-08-26T10:01:30.918Z,101368.50
2022-08-26T10:04:24.917Z,101364.34
2022-08-26T10:07:14.161Z,101361.66
2022-08-26T10:10:09.423Z,101362.78
2022-08-26T10:13:12.675Z,101369.00
2022-08-26T10:16:00.234Z,101367.03
2022-08-26T10:19:07.980Z,101365.09
2022-08-26T10:22:07.924Z,101361.69
2022-08-26T10:25:03.836Z,101350.09
2022-08-26T10:28:03.694Z,101358.63
2022-08-26T10:30:57.255Z,101358.03
2022-08-26T10:33:44.626Z,101359.13
2022-08-26T10:37:13.773Z,101355.19
2022-08-26T10:40:07.643Z,101360.34
2022-08-26T10:43:10.985Z,101367.19
2022-08-26T10:46:08.972Z,101352.91
2022-08-26T10:49:03.198Z,101344.88
2022-08-26T10:52:03.961Z,101359.75
2022-08-26T10:55:20.461Z,101356.81
2022-08-26T10:58:30.692Z,101361.97
2022-08-26T11:01:44.284Z,101356.31
2022-08-26T11:04:37.822Z,101355.09
2022-08-26T11:07:31.888Z,101348.25
2022-08-26T11:10:19.145Z,101346.19
2022-08-26T11:13:08.324Z,101342.22
2022-08-26T11:16:01.323Z,101342.25
2022-08-26T11:19:00.137Z,101336.59
2022-08-26T11:22:05.646Z,101338.59
2022-08-26T11:24:52.911Z,101338.66
2022-08-26T11:27:40.332Z,101336.44
2022-08-26T11:30:46.131Z,101333.25
2022-08-26T11:33:54.128Z,101328.94
2022-08-26T11:36:56.211Z,101324.13
2022-08-26T11:39:55.194Z,101328.66
2022-08-26T11:42:49.401Z,101320.59
2022-08-26T11:46:00.514Z,101323.88
2022-08-26T11:48:48.637Z,101313.50
2022-08-26T11:51:40.405Z,101316.94
2022-08-26T11:54:35.693Z,101315.22
2022-08-26T11:57:23.493Z,101307.41
2022-08-26T12:00:21.096Z,101310.81
2022-08-26T12:03:17.904Z,101313.38
2022-08-26T12:06:17.694Z,101305.16
2022-08-26T12:09:12.993Z,101306.91
2022-08-26T12:12:10.667Z,101295.97
2022-08-26T12:15:05.639Z,101292.44
2022-08-26T12:17:54.453Z,101283.19
2022-08-26T12:20:48.642Z,101301.50
2022-08-26T12:23:36.495Z,101298.09
2022-08-26T12:26:34.890Z,101298.22
2022-08-26T12:29:28.375Z,101287.97
2022-08-26T12:32:18.484Z,101284.84
2022-08-26T12:35:10.150Z,101288.38
2022-08-26T12:37:58.926Z,101286.41
2022-08-26T12:40:48.155Z,101284.56
2022-08-26T12:43:44.395Z,101265.16
2022-08-26T12:46:32.012Z,101269.78
2022-08-26T12:49:19.345Z,101266.97
2022-08-26T12:52:09.860Z,101269.41
2022-08-26T12:55:18.583Z,101273.16
2022-08-26T12:58:31.882Z,101273.00
2022-08-26T13:01:25.294Z,101261.69
2022-08-26T13:04:40.591Z,101264.44
2022-08-26T13:07:27.899Z,101257.84
2022-08-26T13:10:38.218Z,101256.56
2022-08-26T13:13:25.489Z,101261.84
2022-08-26T13:16:16.255Z,101251.06
2022-08-26T13:19:13.428Z,101251.56
2022-08-26T13:22:01.139Z,101243.34
2022-08-26T13:24:48.520Z,101246.50
2022-08-26T13:27:35.956Z,101241.56
2022-08-26T13:30:24.649Z,101240.69
2022-08-26T13:33:14.635Z,101228.66
2022-08-26T13:36:02.073Z,101240.41
2022-08-26T13:38:52.065Z,101230.31
2022-08-26T13:41:40.717Z,101227.84
2022-08-26T13:44:28.406Z,101223.41
2022-08-26T13:47:16.975Z,101213.50
2022-08-26T13:50:05.833Z,101207.34
2022-08-26T13:52:53.857Z,101203.75
2022-08-26T13:55:43.445Z,101217.59
2022-08-26T13:58:31.127Z,101203.78
2022-08-26T14:01:18.628Z,101209.00
2022-08-26T14:04:06.652Z,101201.22
2022-08-26T14:06:54.079Z,101201.88
2022-08-26T14:09:41.678Z,101202.97
2022-08-26T14:12:29.819Z,101197.38
2022-08-26T14:15:18.883Z,101191.63
2022-08-26T14:18:09.197Z,101193.53
2022-08-26T14:20:57.650Z,101175.72
2022-08-26T14:23:45.032Z,101178.31
2022-08-26T14:26:32.931Z,101177.38
2022-08-26T14:29:20.216Z,101183.69
2022-08-26T14:32:13.710Z,101182.09
2022-08-26T14:35:01.945Z,101179.59
2022-08-26T14:37:49.565Z,101173.06
2022-08-26T14:40:38.406Z,101172.41
2022-08-26T14:43:26.417Z,101169.06
2022-08-26T14:46:15.682Z,101168.59
2022-08-26T14:49:06.198Z,101162.53
2022-08-26T14:51:56.675Z,101157.63
2022-08-26T14:54:44.668Z,101160.91
2022-08-26T14:57:32.069Z,101158.47
2022-08-26T15:00:19.570Z,101156.94
2022-08-26T15:03:07.048Z,101156.78
2022-08-26T15:05:55.014Z,101147.97
2022-08-26T15:08:42.546Z,101144.09
2022-08-26T15:11:30.002Z,101140.34
2022-08-26T15:14:19.327Z,101132.03
2022-08-26T15:17:07.636Z,101134.56
2022-08-26T15:19:54.963Z,101129.47
2022-08-26T15:22:43.400Z,101127.78
2022-08-26T15:25:31.369Z,101131.03
2022-08-26T15:28:18.764Z,101125.91
2022-08-26T15:31:07.296Z,101124.06
2022-08-26T15:33:56.674Z,101122.53
2022-08-26T15:36:46.183Z,101127.25
2022-08-26T15:39:34.327Z,101114.75
2022-08-26T15:42:21.672Z,101116.41
2022-08-26T15:45:09.279Z,101114.06
2022-08-26T15:48:01.396Z,101119.31
2022-08-26T15:50:51.752Z,101109.19
2022-08-26T15:53:39.102Z,101108.31
2022-08-26T15:56:28.046Z,101099.53
2022-08-26T15:59:15.977Z,101098.50
2022-08-26T16:02:03.374Z,101099.84
2022-08-26T16:04:50.673Z,101106.06
2022-08-26T16:07:38.244Z,101093.03
2022-08-26T16:10:25.637Z,101101.97
2022-08-26T16:13:14.813Z,101098.72
2022-08-26T16:16:03.347Z,101086.22
2022-08-26T16:18:51.877Z,101088.94
2022-08-26T16:21:40.668Z,101086.78
2022-08-26T16:24:30.494Z,101081.53
2022-08-26T16:27:18.092Z,101091.63
2022-08-26T16:30:06.929Z,101086.13
2022-08-26T16:32:55.769Z,101082.09
2022-08-26T16:35:44.788Z,101083.66
2022-08-26T16:38:32.248Z,101086.88
2022-08-26T16:41:19.808Z,101087.53
2022-08-26T16:44:07.994Z,101086.00
2022-08-26T16:46:58.462Z,101075.50
2022-08-26T16:49:47.029Z,101078.69
2022-08-26T16:52:34.435Z,101075.22
2022-08-26T16:55:23.431Z,101086.84
2022-08-26T16:58:10.953Z,101086.47
2022-08-26T17:00:59.265Z,101099.75
2022-08-26T17:03:46.672Z,101090.84
2022-08-26T17:06:34.358Z,101081.38
2022-08-26T17:09:22.029Z,101088.44
2022-08-26T17:12:11.302Z,101092.03
2022-08-26T17:14:58.604Z,101080.00
2022-08-26T17:17:46.017Z,101086.69
2022-08-26T17:20:33.842Z,101092.22
2022-08-26T17:23:22.451Z,101078.38
2022-08-26T17:26:12.314Z,101075.47
2022-08-26T17:29:00.192Z,101076.31
2022-08-26T17:31:47.638Z,101078.00
2022-08-26T17:34:34.867Z,101082.91
2022-08-26T17:37:22.193Z,101080.44
2022-08-26T17:40:13.823Z,101081.00
2022-08-26T17:43:01.171Z,101094.50
2022-08-26T17:45:48.531Z,101091.69
2022-08-26T17:48:37.844Z,101080.63
2022-08-26T17:51:25.293Z,101089.81
2022-08-26T17:54:13.045Z,101096.59
2022-08-26T17:57:00.639Z,101092.66
2022-08-26T17:59:48.245Z,101087.91
2022-08-26T18:02:39.703Z,101095.31
2022-08-26T18:05:29.132Z,101100.16
2022-08-26T18:08:16.585Z,101101.50
2022-08-26T18:11:08.149Z,101101.63
2022-08-26T18:13:59.067Z,101096.75
2022-08-26T18:16:50.468Z,101096.19
2022-08-26T18:19:38.878Z,101100.69
2022-08-26T18:22:27.447Z,101101.66
2022-08-26T18:25:18.987Z,101104.94
2022-08-26T18:28:06.389Z,101111.94
2022-08-26T18:30:54.001Z,101103.44
2022-08-26T18:33:45.189Z,101115.22
2022-08-26T18:36:37.478Z,101124.06
2022-08-26T18:39:24.715Z,101118.53
2022-08-26T18:42:11.971Z,101119.31
2022-08-26T18:44:59.226Z,101106.94
2022-08-26T18:47:46.419Z,101120.53
2022-08-26T18:50:33.804Z,101121.97
2022-08-26T18:53:21.394Z,101117.28
2022-08-26T18:56:08.647Z,101122.22
2022-08-26T18:58:55.918Z,101117.28
2022-08-26T19:01:43.373Z,101124.69
2022-08-26T19:04:30.663Z,101125.34
2022-08-26T19:07:19.436Z,101125.03
2022-08-26T19:10:07.211Z,101129.84
2022-08-26T19:13:00.078Z,101130.22
2022-08-26T19:15:48.012Z,101123.50
2022-08-26T19:18:35.292Z,101132.16
2022-08-26T19:21:24.064Z,101131.53
2022-08-26T19:24:17.554Z,101137.94
2022-08-26T19:27:05.568Z,101136.66
2022-08-26T19:29:52.793Z,101129.28
2022-08-26T19:32:40.103Z,101135.56
2022-08-26T19:35:27.392Z,101122.81
2022-08-26T19:38:15.573Z,101129.25
2022-08-26T19:41:02.768Z,101116.56
2022-08-26T19:43:50.060Z,101129.16
2022-08-26T19:49:31.879Z,101134.81
2022-08-26T19:52:19.227Z,101136.84
2022-08-26T19:55:07.692Z,101134.38
2022-08-26T19:57:55.003Z,101124.13
2022-08-26T20:00:43.058Z,101148.59
2022-08-26T20:03:30.838Z,101139.91
2022-08-26T20:06:18.392Z,101136.41
2022-08-26T20:09:05.619Z,101145.34
2022-08-26T20:11:54.109Z,101149.75
2022-08-26T20:14:44.542Z,101146.53
2022-08-26T20:17:33.228Z,101147.47
2022-08-26T20:20:39.362Z,101136.34
2022-08-26T20:23:27.050Z,101145.97
2022-08-26T20:26:14.594Z,101136.56
2022-08-26T20:29:02.792Z,101144.47
2022-08-26T20:31:51.248Z,101141.03
2022-08-26T20:34:40.419Z,101136.88
2022-08-26T20:37:29.662Z,101142.97
2022-08-26T20:40:17.792Z,101139.63
2022-08-26T20:43:06.822Z,101142.50
2022-08-26T20:45:54.705Z,101136.31
2022-08-26T20:48:42.794Z,101131.59
2022-08-26T20:51:30.934Z,101130.41
2022-08-26T20:54:26.200Z,101140.22
2022-08-26T20:57:15.754Z,101140.44
2022-08-26T21:00:05.872Z,101138.69
2022-08-26T21:02:53.840Z,101138.06
2022-08-26T21:05:42.448Z,101134.63
2022-08-26T21:08:33.153Z,101137.50
2022-08-26T21:11:21.659Z,101134.84
2022-08-26T21:14:16.091Z,101133.47
2022-08-26T21:17:05.076Z,101119.03
2022-08-26T21:19:53.002Z,101133.69
2022-08-26T21:22:40.496Z,101122.47
2022-08-26T21:25:27.937Z,101124.38
2022-08-26T21:28:19.451Z,101128.84
2022-08-26T21:31:08.767Z,101123.69
2022-08-26T21:33:56.441Z,101131.91
2022-08-26T21:36:44.324Z,101125.72
2022-08-26T21:39:31.607Z,101120.56
2022-08-26T21:42:18.927Z,101112.22
2022-08-26T21:45:07.283Z,101120.00
2022-08-26T21:47:54.781Z,101120.28
2022-08-26T21:50:43.194Z,101127.66
2022-08-26T21:53:30.522Z,101121.56
2022-08-26T21:56:19.419Z,101126.13
2022-08-26T21:59:07.594Z,101123.53
2022-08-26T22:01:55.000Z,101135.34
2022-08-26T22:04:46.840Z,101124.41
2022-08-26T22:07:36.269Z,101123.56
2022-08-26T22:10:23.670Z,101134.88
2022-08-26T22:13:11.440Z,101133.38
2022-08-26T22:16:03.001Z,101129.34
2022-08-26T22:18:50.597Z,101120.59
2022-08-26T22:21:38.405Z,101119.91
2022-08-26T22:24:27.376Z,101127.91
2022-08-26T22:27:15.040Z,101135.13
2022-08-26T22:30:02.360Z,101119.63
2022-08-26T22:32:49.700Z,101130.28
2022-08-26T22:35:42.225Z,101129.50
2022-08-26T22:38:29.758Z,101130.56
2022-08-26T22:41:18.502Z,101111.78
2022-08-26T22:44:05.959Z,101118.84
2022-08-26T22:46:57.150Z,101129.38
2022-08-26T22:49:47.000Z,101127.97
2022-08-26T22:52:34.252Z,101127.84
2022-08-26T22:55:21.568Z,101126.16
2022-08-26T22:58:09.562Z,101127.13
2022-08-26T23:00:57.923Z,101122.91
2022-08-26T23:03:46.758Z,101119.00
2022-08-26T23:06:39.584Z,101116.81
2022-08-26T23:09:26.874Z,101118.81
2022-08-26T23:12:14.406Z,101114.53
2022-08-26T23:15:01.714Z,101109.19
2022-08-26T23:17:53.588Z,101111.84
2022-08-26T23:20:47.154Z,101110.31
2022-08-26T23:23:35.772Z,101115.47
2022-08-26T23:26:23.106Z,101104.16
2022-08-26T23:29:12.719Z,101108.53
2022-08-26T23:32:00.520Z,101105.09
2022-08-26T23:34:57.019Z,101112.13
2022-08-26T23:37:46.156Z,101112.13
2022-08-26T23:40:37.937Z,101104.34
2022-08-26T23:43:25.263Z,101101.84
2022-08-26T23:46:15.001Z,101100.22
2022-08-26T23:49:02.544Z,101095.28
2022-08-26T23:52:08.447Z,101094.31
2022-08-26T23:54:56.011Z,101090.19
2022-08-26T23:57:43.389Z,101094.56
